Time;durP1;ratioP1;P1;durP2;ratioP2;P2;SDS_P1;SDS_P2;PMS_P1;PMS_P2;Temp;Humidity;BMP_temperature;BMP_pressure;BME280_temperature;BME280_humidity;BME280_pressure;Samples;Min_cycle;Max_cycle;Signal;HPM_P1;HPM_P2
2022/08/23 00:01:26;;;;;;;38.20;10.80;;;;;;;21.33;68.32;99821.89;105352;1282;139908;-73
2022/08/23 00:04:05;;;;;;;24.70;10.50;;;;;;;21.33;68.26;99825.02;105522;1282;98511;-73
2022/08/23 00:06:37;;;;;;;26.40;10.70;;;;;;;21.34;68.34;99827.66;105264;1282;139936;-72
2022/08/23 00:09:11;;;;;;;31.00;10.90;;;;;;;21.35;68.46;99831.63;105596;1282;112516;-73
2022/08/23 00:11:47;;;;;;;23.20;10.70;;;;;;;21.34;68.58;99833.66;105486;1281;108938;-73
2022/08/23 00:14:23;;;;;;;21.70;11.00;;;;;;;21.33;68.61;99835.30;105460;1281;139819;-72
2022/08/23 00:16:57;;;;;;;26.30;11.00;;;;;;;21.32;68.62;99835.58;105495;1282;97904;-73
2022/08/23 00:19:30;;;;;;;26.20;10.70;;;;;;;21.30;68.55;99831.37;105432;1282;139168;-72
2022/08/23 00:22:02;;;;;;;26.30;10.70;;;;;;;21.29;68.71;99827.36;105429;1282;112752;-73
2022/08/23 00:24:35;;;;;;;33.10;10.90;;;;;;;21.26;68.82;99822.86;105508;1281;139194;-72
2022/08/23 00:27:13;;;;;;;24.50;10.60;;;;;;;21.22;68.81;99820.65;105376;1284;108885;-72
2022/08/23 00:29:48;;;;;;;28.70;10.60;;;;;;;21.18;68.81;99817.77;105524;1281;97993;-72
2022/08/23 00:32:22;;;;;;;35.00;11.50;;;;;;;21.14;69.18;99813.20;105522;1281;138562;-73
2022/08/23 00:34:54;;;;;;;29.60;11.10;;;;;;;21.10;69.16;99813.34;106800;1282;112539;-73
2022/08/23 00:37:27;;;;;;;24.30;11.20;;;;;;;21.08;69.39;99808.86;106874;1281;139261;-73
2022/08/23 00:39:59;;;;;;;25.10;10.30;;;;;;;21.08;69.42;99816.27;106950;1281;108942;-73
2022/08/23 00:48:23;;;;;;;32.00;10.30;;;;;;;21.12;69.90;99820.41;106851;1281;141600;-73
2022/08/23 00:51:03;;;;;;;27.80;11.50;;;;;;;21.13;69.86;99822.63;106719;1281;108988;-74
2022/08/23 00:53:41;;;;;;;23.00;10.80;;;;;;;21.15;69.88;99829.34;105744;1282;108918;-73
2022/08/23 00:56:17;;;;;;;25.90;11.10;;;;;;;21.16;69.96;99830.66;105214;1284;139335;-74
2022/08/23 00:58:49;;;;;;;25.10;10.80;;;;;;;21.19;69.86;99833.98;105440;1282;97734;-73
2022/08/23 01:01:21;;;;;;;29.40;10.70;;;;;;;21.22;69.86;99842.64;105407;1282;138758;-73
2022/08/23 01:03:57;;;;;;;23.30;10.50;;;;;;;21.23;70.11;99844.98;105474;1281;109188;-73
2022/08/23 01:06:42;;;;;;;28.60;10.90;;;;;;;21.27;70.09;99853.88;105497;1281;139776;-73
2022/08/23 01:09:17;;;;;;;22.30;10.10;;;;;;;21.30;69.98;99857.30;105498;1281;97900;-74
2022/08/23 01:11:54;;;;;;;29.90;11.30;;;;;;;21.32;69.86;99857.71;105544;1280;97857;-73
2022/08/23 01:14:31;;;;;;;25.70;11.50;;;;;;;21.34;70.01;99855.55;105528;1281;139012;-73
2022/08/23 01:17:06;;;;;;;25.90;11.10;;;;;;;21.36;69.92;99859.15;105526;1282;107507;-72
2022/08/23 01:19:42;;;;;;;32.30;10.90;;;;;;;21.37;69.92;99870.05;105463;1282;139389;-72
2022/08/23 01:22:19;;;;;;;27.30;11.20;;;;;;;21.35;69.87;99879.54;105465;1282;97859;-73
2022/08/23 01:24:53;;;;;;;27.70;11.10;;;;;;;21.30;69.80;99875.88;105441;1281;138876;-73
2022/08/23 01:27:42;;;;;;;33.40;12.00;;;;;;;21.27;69.89;99882.02;105547;1281;112493;-74
2022/08/23 01:30:20;;;;;;;30.10;11.30;;;;;;;21.25;70.11;99887.09;105100;1284;139733;-73
2022/08/23 01:32:55;;;;;;;27.10;10.90;;;;;;;21.23;70.26;99889.23;105549;1282;109519;-74
2022/08/23 01:35:35;;;;;;;23.50;11.30;;;;;;;21.20;70.31;99890.98;105538;1281;98036;-75
2022/08/23 01:38:09;;;;;;;28.60;11.20;;;;;;;21.19;70.36;99894.30;105481;1281;138714;-74
2022/08/23 01:40:43;;;;;;;34.70;11.40;;;;;;;21.18;70.47;99893.64;105343;1282;112938;-73
2022/08/23 01:43:18;;;;;;;25.20;11.40;;;;;;;21.17;70.62;99893.95;105269;1282;138934;-73
2022/08/23 01:45:53;;;;;;;24.70;10.80;;;;;;;21.16;70.79;99893.61;105440;1282;107761;-73
2022/08/23 01:48:27;;;;;;;30.60;11.30;;;;;;;21.18;71.26;99893.66;105192;1281;139469;-73
2022/08/23 01:50:59;;;;;;;29.80;12.70;;;;;;;21.19;71.25;99884.05;105646;1282;97859;-74
2022/08/23 01:53:32;;;;;;;26.80;11.30;;;;;;;21.18;71.22;99880.38;105567;1282;111555;-74
2022/08/23 01:56:07;;;;;;;29.40;11.60;;;;;;;21.18;71.53;99874.36;105271;1282;138964;-74
2022/08/23 01:58:41;;;;;;;26.50;12.00;;;;;;;21.19;71.56;99879.62;105553;1282;109244;-74
2022/08/23 02:01:15;;;;;;;32.10;13.40;;;;;;;21.21;71.74;99888.70;105299;1282;139613;-75
2022/08/23 02:03:47;;;;;;;26.10;12.20;;;;;;;21.23;72.12;99902.84;105444;1282;97853;-74
2022/08/23 02:06:36;;;;;;;30.20;11.70;;;;;;;21.25;71.92;99908.53;105396;1281;138981;-74
2022/08/23 02:09:08;;;;;;;30.90;11.90;;;;;;;21.24;72.01;99902.04;105489;1281;108921;-73
2022/08/23 02:11:50;;;;;;;27.10;12.50;;;;;;;21.21;72.36;99903.49;106334;1282;108531;-74
2022/08/23 02:14:23;;;;;;;33.60;12.90;;;;;;;21.19;72.52;99905.96;106610;1281;138986;-74
2022/08/23 02:16:58;;;;;;;28.10;12.80;;;;;;;21.17;72.71;99914.39;106021;1281;96360;-74
2022/08/23 02:19:40;;;;;;;27.20;12.80;;;;;;;21.12;72.77;99912.15;105337;1282;139263;-74
2022/08/23 02:22:13;;;;;;;34.70;13.50;;;;;;;21.06;73.25;99916.53;105748;1281;108905;-74
2022/08/23 02:24:47;;;;;;;28.20;14.70;;;;;;;21.00;73.36;99894.71;106371;1281;139193;-74
2022/08/23 02:27:19;;;;;;;28.50;13.30;;;;;;;20.94;73.77;99887.79;105301;1282;98567;-74
2022/08/23 02:29:51;;;;;;;31.40;14.30;;;;;;;20.91;74.20;99895.38;105509;1281;97865;-75
2022/08/23 02:32:24;;;;;;;29.40;14.00;;;;;;;20.85;74.06;99883.66;105149;1282;138598;-75
2022/08/23 02:34:58;;;;;;;23.20;13.10;;;;;;;20.80;74.49;99871.45;105340;1282;108938;-75
2022/08/23 02:37:37;;;;;;;31.20;15.10;;;;;;;20.77;74.89;99859.13;105394;1282;138871;-74
2022/08/23 02:40:11;;;;;;;29.50;13.00;;;;;;;20.75;75.18;99860.92;106212;1281;97739;-75
2022/08/23 02:42:43;;;;;;;26.50;13.40;;;;;;;20.75;75.61;99854.58;106856;1281;139129;-75
2022/08/23 02:45:17;;;;;;;27.60;13.70;;;;;;;20.74;75.46;99851.11;106822;1281;112520;-75
2022/08/23 02:47:51;;;;;;;32.20;13.80;;;;;;;20.71;75.60;99851.34;106717;1281;109043;-75
2022/08/23 02:50:29;;;;;;;26.90;13.70;;;;;;;20.72;75.89;99853.41;105804;1282;108893;-74
2022/08/23 02:53:02;;;;;;;25.10;13.00;;;;;;;20.73;75.89;99852.95;105532;1282;98005;-75
2022/08/23 02:55:34;;;;;;;34.90;17.90;;;;;;;20.73;76.10;99849.21;105857;1281;138734;-75
2022/08/23 02:58:07;;;;;;;25.50;13.40;;;;;;;20.73;76.08;99845.14;105523;1282;112870;-74
2022/08/23 03:00:39;;;;;;;28.10;13.20;;;;;;;20.73;75.96;99844.33;105274;1282;139525;-75
2022/08/23 03:03:11;;;;;;;26.60;14.00;;;;;;;20.72;76.17;99846.89;106314;1280;108793;-75
2022/08/23 03:05:44;;;;;;;29.90;14.30;;;;;;;20.73;76.27;99850.48;106743;1281;96202;-76
2022/08/23 03:08:16;;;;;;;25.20;13.50;;;;;;;20.74;76.23;99848.49;106253;1281;140933;-75
2022/08/23 03:10:53;;;;;;;24.70;13.40;;;;;;;20.73;76.13;99839.20;105641;1282;112494;-75
2022/08/23 03:13:25;;;;;;;26.80;12.80;;;;;;;20.74;76.60;99835.05;105422;1281;139489;-74
2022/08/23 03:15:58;;;;;;;29.90;14.20;;;;;;;20.75;76.67;99828.61;105258;1284;108783;-75
2022/08/23 03:18:30;;;;;;;23.40;13.90;;;;;;;20.74;76.87;99827.94;106706;1281;139780;-75
2022/08/23 03:21:04;;;;;;;30.80;13.90;;;;;;;20.74;76.91;99826.33;106854;1281;96585;-75
2022/08/23 03:23:38;;;;;;;22.90;13.10;;;;;;;20.75;76.71;99828.79;106919;1280;111983;-75
2022/08/23 03:26:12;;;;;;;28.50;14.20;;;;;;;20.74;76.77;99825.65;106699;1282;139565;-75
2022/08/23 03:28:47;;;;;;;22.80;12.80;;;;;;;20.74;76.89;99824.98;105774;1282;107891;-75
2022/08/23 03:31:21;;;;;;;24.50;13.40;;;;;;;20.74;76.78;99824.11;105592;1282;140137;-75
2022/08/23 03:34:11;;;;;;;26.00;13.50;;;;;;;20.74;76.90;99823.21;106816;1281;95857;-75
2022/08/23 03:36:43;;;;;;;23.40;13.30;;;;;;;20.74;77.02;99821.10;106629;1282;138961;-75
2022/08/23 03:39:16;;;;;;;29.80;13.80;;;;;;;20.74;76.94;99821.27;106650;1281;108807;-76
2022/08/23 03:41:48;;;;;;;24.50;13.90;;;;;;;20.75;77.07;99813.08;105638;1282;108748;-75
2022/08/23 03:44:21;;;;;;;23.00;12.90;;;;;;;20.73;76.79;99815.29;105205;1282;139418;-76
2022/08/23 03:46:53;;;;;;;23.60;13.20;;;;;;;20.70;76.82;99819.11;105437;1282;97846;-76
2022/08/23 03:49:26;;;;;;;23.50;13.80;;;;;;;20.68;76.93;99816.64;105422;1281;138708;-74
2022/08/23 03:52:00;;;;;;;28.30;14.00;;;;;;;20.67;77.01;99818.17;105147;1284;109243;-75
2022/08/23 03:54:34;;;;;;;25.50;13.00;;;;;;;20.66;77.28;99815.38;105364;1281;139158;-75
2022/08/23 03:57:09;;;;;;;26.00;12.90;;;;;;;20.65;76.98;99818.80;105542;1281;97840;-75
2022/08/23 03:59:42;;;;;;;24.70;13.00;;;;;;;20.68;77.42;99817.67;105578;1281;97869;-75
2022/08/23 04:02:15;;;;;;;20.00;13.40;;;;;;;20.72;77.30;99815.05;105503;1281;138891;-76
2022/08/23 04:04:48;;;;;;;22.40;13.20;;;;;;;20.77;77.42;99811.48;105342;1282;108865;-76
2022/08/23 04:07:26;;;;;;;24.40;12.80;;;;;;;20.81;77.26;99811.45;105440;1281;138910;-76
2022/08/23 04:09:59;;;;;;;23.60;13.60;;;;;;;20.87;77.23;99810.30;105294;1282;97876;-76
2022/08/23 04:12:35;;;;;;;21.00;12.80;;;;;;;20.92;77.46;99805.11;105205;1282;139938;-76
2022/08/23 04:15:10;;;;;;;23.70;13.20;;;;;;;20.98;77.44;99808.14;105495;1281;112906;-76
2022/08/23 04:17:43;;;;;;;22.30;12.70;;;;;;;21.02;77.41;99807.06;105339;1284;107887;-76
2022/08/23 04:20:15;;;;;;;18.40;12.90;;;;;;;21.06;77.28;99809.80;105216;1282;141086;-77
2022/08/23 04:22:56;;;;;;;23.80;14.10;;;;;;;21.08;77.33;99807.85;105581;1281;97873;-76
2022/08/23 04:25:30;;;;;;;23.70;13.20;;;;;;;21.10;77.06;99813.34;105385;1282;140585;-76
2022/08/23 04:28:06;;;;;;;25.80;12.50;;;;;;;21.11;77.04;99816.92;106900;1281;112639;-77
2022/08/23 04:30:39;;;;;;;23.50;13.40;;;;;;;21.15;77.44;99824.04;106799;1281;139293;-77
2022/08/23 04:33:13;;;;;;;19.80;13.60;;;;;;;21.19;77.03;99829.61;105945;1281;108395;-77
2022/08/23 04:35:49;;;;;;;21.90;12.70;;;;;;;21.22;76.74;99830.90;105527;1281;97884;-76
2022/08/23 04:38:22;;;;;;;22.50;12.40;;;;;;;21.29;77.05;99834.94;105314;1284;139636;-76
2022/08/23 04:43:49;;;;;;;20.00;12.50;;;;;;;21.57;76.48;99848.53;105421;1281;125087;-76
2022/08/23 04:46:21;;;;;;;22.80;12.40;;;;;;;21.79;76.38;99849.27;105306;1284;109749;-76
2022/08/23 04:48:54;;;;;;;25.10;12.70;;;;;;;22.11;76.17;99853.80;105334;1282;139149;-77
2022/08/23 04:51:28;;;;;;;22.60;11.50;;;;;;;22.47;75.98;99857.09;105320;1284;97883;-77
2022/08/23 04:54:00;;;;;;;21.50;12.10;;;;;;;22.81;75.06;99861.17;105456;1282;111449;-77
2022/08/23 04:56:41;;;;;;;22.90;12.00;;;;;;;23.20;74.10;99856.56;105386;1283;109004;-75
2022/08/23 04:59:14;;;;;;;24.80;10.60;;;;;;;23.53;72.88;99862.38;105361;1281;108886;-76
2022/08/23 05:01:47;;;;;;;17.00;10.50;;;;;;;23.75;72.01;99866.99;105237;1281;139000;-74
2022/08/23 05:04:20;;;;;;;17.40;10.40;;;;;;;23.98;71.78;99868.38;105435;1281;98135;-75
2022/08/23 05:06:53;;;;;;;20.80;9.90;;;;;;;24.18;70.66;99866.48;105488;1281;138956;-76
2022/08/23 05:09:25;;;;;;;16.60;10.40;;;;;;;24.24;70.13;99863.02;105550;1281;108893;-76
2022/08/23 05:11:58;;;;;;;19.40;9.70;;;;;;;24.41;69.66;99865.00;105437;1284;107698;-76
2022/08/23 05:14:31;;;;;;;18.30;10.30;;;;;;;24.69;69.04;99865.69;105529;1282;97856;-77
2022/08/23 05:17:03;;;;;;;12.90;8.30;;;;;;;24.97;68.04;99866.71;105359;1283;97874;-77
2022/08/23 05:19:36;;;;;;;18.40;9.40;;;;;;;25.36;67.69;99871.48;105397;1281;140333;-77
2022/08/23 05:22:15;;;;;;;15.40;8.80;;;;;;;25.82;66.61;99876.98;105534;1281;108928;-76
2022/08/23 05:25:08;;;;;;;18.00;9.10;;;;;;;26.18;65.63;99882.41;105434;1281;139946;-76
2022/08/23 05:27:41;;;;;;;18.00;9.60;;;;;;;26.51;64.70;99882.73;105487;1284;97851;-76
2022/08/23 05:30:14;;;;;;;17.50;9.00;;;;;;;26.93;64.13;99880.94;105447;1282;205664;-76
2022/08/23 05:32:47;;;;;;;16.50;9.20;;;;;;;27.45;63.50;99882.86;105356;1282;112741;-76
2022/08/23 05:35:19;;;;;;;15.70;9.50;;;;;;;28.03;62.46;99879.40;105469;1282;108807;-77
2022/08/23 05:37:52;;;;;;;15.40;8.30;;;;;;;28.57;61.42;99873.13;106655;1281;138731;-76
2022/08/23 05:40:24;;;;;;;13.20;8.20;;;;;;;29.03;60.60;99872.55;105278;1284;97946;-76
2022/08/23 05:43:05;;;;;;;14.70;8.80;;;;;;;29.22;59.07;99877.50;105273;1284;139482;-70
2022/08/23 05:45:37;;;;;;;16.50;8.90;;;;;;;29.17;58.26;99878.21;105640;1284;112768;-79
2022/08/23 05:48:10;;;;;;;15.70;8.60;;;;;;;29.15;57.75;99885.04;106763;1281;138680;-76
2022/08/23 05:50:54;;;;;;;14.60;9.00;;;;;;;29.28;57.34;99892.67;106738;1281;108808;-76
2022/08/23 05:53:27;;;;;;;15.30;9.00;;;;;;;29.49;57.05;99898.19;106625;1284;96158;-69
2022/08/23 05:56:07;;;;;;;15.70;7.60;;;;;;;29.78;56.18;99902.09;106606;1282;137898;-80
2022/08/23 05:58:40;;;;;;;15.60;8.70;;;;;;;30.08;55.83;99907.51;105687;1284;112797;-80
2022/08/23 06:01:13;;;;;;;14.60;7.90;;;;;;;30.36;55.26;99908.36;106187;1284;138130;-79
2022/08/23 06:03:47;;;;;;;15.90;8.10;;;;;;;30.62;54.28;99912.09;106697;1284;108785;-78
2022/08/23 06:06:20;;;;;;;13.40;7.60;;;;;;;30.82;53.57;99912.41;106610;1281;138968;-78
2022/08/23 06:08:52;;;;;;;12.90;7.50;;;;;;;31.09;52.91;99913.80;106929;1281;95879;-78
2022/08/23 06:11:26;;;;;;;14.80;8.40;;;;;;;31.41;52.55;99918.15;106698;1283;112605;-78
2022/08/23 06:14:01;;;;;;;16.10;8.10;;;;;;;31.68;51.57;99921.02;106810;1281;138594;-78
2022/08/23 06:16:36;;;;;;;15.70;7.80;;;;;;;32.05;51.06;99926.71;106820;1281;108865;-78
2022/08/23 06:19:09;;;;;;;14.80;7.50;;;;;;;32.52;50.24;99919.79;106767;1281;138427;-78
2022/08/23 06:21:54;;;;;;;15.80;8.00;;;;;;;33.21;49.15;99915.23;106905;1281;96241;-77
2022/08/23 06:24:34;;;;;;;17.10;7.70;;;;;;;33.90;48.17;99915.48;106736;1281;139112;-77
2022/08/23 06:27:17;;;;;;;14.50;7.90;;;;;;;34.75;46.82;99913.85;106904;1281;106959;-76
2022/08/23 06:29:49;;;;;;;19.70;7.70;;;;;;;35.39;45.50;99915.20;106916;1281;108872;-75
2022/08/23 06:32:37;;;;;;;16.70;7.40;;;;;;;35.91;44.51;99922.63;106821;1284;96112;-76
2022/08/23 06:35:28;;;;;;;14.50;7.50;;;;;;;36.35;43.34;99921.77;106891;1281;96266;-77
2022/08/23 06:38:34;;;;;;;12.40;7.40;;;;;;;36.81;42.41;99924.02;106791;1281;112595;-76
2022/08/23 06:41:33;;;;;;;14.60;7.20;;;;;;;37.21;41.50;99927.16;106553;1281;109106;-76
2022/08/23 06:44:31;;;;;;;22.70;7.60;;;;;;;37.59;40.72;99930.84;106544;1284;108846;-76
2022/08/23 06:47:21;;;;;;;17.40;7.80;;;;;;;37.87;40.15;99929.95;106862;1281;96128;-76
2022/08/23 06:49:54;;;;;;;18.50;7.40;;;;;;;38.17;39.41;99935.85;106623;1281;138987;-75
2022/08/23 06:52:58;;;;;;;17.50;7.40;;;;;;;38.54;38.29;99934.77;106925;1281;112568;-76
2022/08/23 06:55:43;;;;;;;16.70;7.40;;;;;;;38.65;37.51;99935.60;106542;1282;138809;-76
2022/08/23 06:58:26;;;;;;;16.30;7.40;;;;;;;38.68;37.15;99937.19;106887;1281;107921;-76
2022/08/23 07:01:23;;;;;;;14.00;7.10;;;;;;;38.64;36.83;99943.16;106740;1281;139721;-76
2022/08/23 07:04:44;;;;;;;18.30;8.80;;;;;;;38.82;36.59;99941.23;106073;1284;96285;-76
2022/08/23 07:07:35;;;;;;;13.20;7.20;;;;;;;38.70;36.41;99938.79;106647;1283;138622;-75
2022/08/23 07:10:16;;;;;;;16.50;6.50;;;;;;;38.63;36.20;99937.16;106612;1284;108940;-76
2022/08/23 07:12:48;;;;;;;21.50;6.80;;;;;;;38.68;36.22;99928.57;106594;1283;138265;-76
2022/08/23 07:15:24;;;;;;;21.40;6.80;;;;;;;38.74;35.93;99930.55;105697;1284;98000;-75
2022/08/23 07:17:56;;;;;;;11.30;6.00;;;;;;;38.78;35.73;99929.38;105100;1284;98773;-75
2022/08/23 07:20:28;;;;;;;15.50;6.50;;;;;;;38.81;35.50;99927.96;105120;1284;112305;-75
2022/08/23 07:23:00;;;;;;;16.80;6.90;;;;;;;38.84;35.26;99931.84;105089;1282;108928;-75
2022/08/23 07:25:33;;;;;;;12.20;6.80;;;;;;;38.85;34.92;99932.73;105259;1284;138582;-75
2022/08/23 07:28:11;;;;;;;12.20;6.30;;;;;;;38.85;35.01;99928.97;105382;1284;97857;-75
2022/08/23 07:30:44;;;;;;;12.00;6.00;;;;;;;38.84;34.66;99929.83;105355;1282;138070;-74
2022/08/23 07:33:18;;;;;;;24.30;7.90;;;;;;;38.77;34.64;99928.42;105379;1284;112800;-74
2022/08/23 07:36:18;;;;;;;20.50;6.80;;;;;;;38.57;34.44;99931.67;105360;1283;138441;-75
2022/08/23 07:38:51;;;;;;;17.70;7.30;;;;;;;38.40;34.71;99929.03;105413;1284;109142;-74
2022/08/23 07:41:29;;;;;;;17.80;6.30;;;;;;;38.19;34.79;99933.61;105371;1284;97968;-75
2022/08/23 07:44:07;;;;;;;13.20;6.80;;;;;;;37.97;34.92;99931.16;105297;1282;139364;-75
2022/08/23 07:46:43;;;;;;;18.40;6.90;;;;;;;37.76;35.09;99926.77;105152;1284;112671;-75
2022/08/23 07:49:16;;;;;;;12.60;6.50;;;;;;;37.51;35.29;99925.48;105323;1284;138181;-75
2022/08/23 07:51:52;;;;;;;16.30;6.20;;;;;;;37.30;35.64;99929.75;105495;1282;108897;-75
2022/08/23 07:54:26;;;;;;;14.10;6.40;;;;;;;37.03;35.82;99931.70;105242;1284;138209;-74
2022/08/23 07:57:30;;;;;;;14.90;7.50;;;;;;;36.69;36.09;99936.86;104914;1284;97946;-75
2022/08/23 08:00:17;;;;;;;15.40;7.00;;;;;;;36.35;36.24;99935.89;104966;1284;138605;-76
2022/08/23 08:02:59;;;;;;;22.90;7.50;;;;;;;35.95;36.72;99936.91;105525;1282;108917;-76
2022/08/23 08:05:39;;;;;;;17.70;7.90;;;;;;;35.62;37.23;99931.98;105452;1282;109004;-75
2022/08/23 08:08:12;;;;;;;15.60;6.70;;;;;;;35.53;37.72;99933.74;105383;1281;138519;-75
2022/08/23 08:10:44;;;;;;;17.40;7.10;;;;;;;35.55;37.92;99935.19;105329;1283;97855;-75
2022/08/23 08:13:16;;;;;;;16.10;7.50;;;;;;;35.78;38.16;99940.26;105341;1281;138184;-76
2022/08/23 08:15:49;;;;;;;18.40;7.30;;;;;;;36.23;37.53;99940.80;105487;1281;108773;-75
2022/08/23 08:18:21;;;;;;;15.70;7.10;;;;;;;36.62;37.01;99940.95;105408;1281;138426;-75
2022/08/23 08:21:15;;;;;;;19.00;6.80;;;;;;;37.13;36.91;99937.64;105482;1282;97964;-74
2022/08/23 08:24:12;;;;;;;18.30;6.90;;;;;;;37.77;36.33;99933.33;105311;1281;138251;-75
2022/08/23 08:26:49;;;;;;;16.70;6.40;;;;;;;38.20;35.82;99939.23;106739;1283;112029;-76
2022/08/23 08:29:21;;;;;;;15.60;7.00;;;;;;;38.58;35.11;99937.11;106716;1282;107857;-76
2022/08/23 08:31:55;;;;;;;17.00;7.00;;;;;;;38.88;34.75;99941.18;106717;1282;138371;-76
2022/08/23 08:34:27;;;;;;;14.70;6.60;;;;;;;38.69;34.25;99935.40;106636;1284;96324;-77
2022/08/23 08:36:59;;;;;;;19.20;7.10;;;;;;;38.28;34.62;99942.48;106804;1281;138982;-75
2022/08/23 08:39:33;;;;;;;17.20;6.60;;;;;;;37.60;35.01;99937.57;105874;1283;111629;-75
2022/08/23 08:42:25;;;;;;;17.40;7.20;;;;;;;36.99;35.60;99944.50;105369;1281;138342;-76
2022/08/23 08:45:02;;;;;;;19.60;7.20;;;;;;;36.35;36.28;99941.52;105250;1282;108890;-75
2022/08/23 08:47:47;;;;;;;22.50;7.70;;;;;;;35.88;36.93;99945.98;105501;1282;98505;-75
2022/08/23 08:50:25;;;;;;;16.90;6.90;;;;;;;35.39;37.40;99946.52;105535;1282;138661;-75
2022/08/23 08:53:07;;;;;;;18.50;7.60;;;;;;;34.98;38.26;99944.25;105356;1282;113101;-75
2022/08/23 08:56:10;;;;;;;17.10;7.60;;;;;;;34.59;38.90;99946.95;105330;1282;138061;-75
2022/08/23 08:58:51;;;;;;;14.70;7.40;;;;;;;34.28;39.45;99946.68;105124;1282;108743;-75
2022/08/23 09:01:27;;;;;;;19.40;8.40;;;;;;;34.03;39.96;99947.01;105281;1282;138006;-75
2022/08/23 09:04:00;;;;;;;25.20;8.80;;;;;;;33.80;40.30;99950.39;105380;1281;97901;-75
2022/08/23 09:06:42;;;;;;;22.00;8.00;;;;;;;33.53;40.64;99948.19;105315;1281;139929;-75
2022/08/23 09:09:33;;;;;;;20.60;8.00;;;;;;;33.32;41.10;99951.95;105428;1284;108954;-76
2022/08/23 09:12:17;;;;;;;17.90;7.10;;;;;;;33.17;41.62;99947.11;105189;1282;138326;-75
2022/08/23 09:15:05;;;;;;;16.20;8.00;;;;;;;33.20;42.20;99949.86;105442;1284;97877;-76
2022/08/23 09:17:43;;;;;;;17.40;7.10;;;;;;;33.37;42.02;99946.70;105404;1281;96468;-75
2022/08/23 09:20:19;;;;;;;23.20;8.20;;;;;;;33.74;41.96;99944.89;105056;1284;138195;-77
2022/08/23 09:23:08;;;;;;;19.20;7.60;;;;;;;33.94;41.67;99946.47;105313;1284;108894;-75
2022/08/23 09:25:50;;;;;;;25.60;8.10;;;;;;;34.04;41.43;99944.26;105307;1284;138003;-75
2022/08/23 09:28:23;;;;;;;22.80;8.20;;;;;;;34.06;41.52;99944.33;105336;1282;97876;-76
2022/08/23 09:30:59;;;;;;;18.20;7.60;;;;;;;34.05;41.68;99945.67;106453;1282;138108;-76
2022/08/23 09:33:41;;;;;;;26.80;8.10;;;;;;;34.13;41.65;99942.63;105535;1281;112613;-76
2022/08/23 09:36:27;;;;;;;23.00;7.50;;;;;;;34.16;41.51;99940.93;105189;1281;138233;-76
2022/08/23 09:39:05;;;;;;;22.90;7.60;;;;;;;34.08;41.83;99942.91;105358;1281;108891;-76
2022/08/23 09:41:42;;;;;;;21.70;7.70;;;;;;;34.07;41.83;99944.29;105264;1282;97853;-72
2022/08/23 09:44:30;;;;;;;17.20;8.00;;;;;;;34.09;41.85;99943.62;106028;1282;137900;-76
2022/08/23 09:47:10;;;;;;;20.80;7.90;;;;;;;34.39;42.24;99943.94;105385;1281;112561;-76
2022/08/23 09:49:50;;;;;;;22.70;8.50;;;;;;;34.76;42.07;99945.44;105417;1282;138425;-74
2022/08/23 09:52:25;;;;;;;20.10;7.50;;;;;;;35.08;41.87;99940.95;105313;1281;109013;-77
2022/08/23 09:55:08;;;;;;;15.80;6.90;;;;;;;35.49;41.39;99936.79;105279;1281;138353;-77
2022/08/23 09:57:48;;;;;;;21.60;7.50;;;;;;;36.03;40.67;99942.27;105323;1281;97984;-75
2022/08/23 10:00:27;;;;;;;28.20;7.80;;;;;;;36.58;40.32;99941.67;105356;1281;139160;-76
2022/08/23 10:03:22;;;;;;;26.70;7.70;;;;;;;37.01;39.05;99940.64;105515;1281;109224;-76
2022/08/23 10:05:59;;;;;;;18.10;6.50;;;;;;;37.26;38.71;99939.60;105811;1282;109118;-76
2022/08/23 10:08:37;;;;;;;24.40;7.40;;;;;;;37.60;38.21;99935.42;105415;1281;97899;-76
2022/08/23 10:11:21;;;;;;;23.30;7.70;;;;;;;37.81;38.15;99938.55;105502;1281;97871;-76
2022/08/23 10:13:53;;;;;;;24.60;7.90;;;;;;;38.20;37.43;99938.15;105198;1282;137807;-76
2022/08/23 10:16:37;;;;;;;30.50;7.50;;;;;;;38.42;36.94;99937.14;105523;1282;107962;-75
2022/08/23 10:19:25;;;;;;;25.00;7.60;;;;;;;38.55;36.32;99937.08;105091;1284;138039;-75
2022/08/23 10:22:13;;;;;;;23.80;7.50;;;;;;;38.59;35.77;99931.84;105531;1281;97961;-77
2022/08/23 10:25:01;;;;;;;21.40;6.80;;;;;;;38.51;35.08;99929.70;104966;1284;138746;-78
2022/08/23 10:30:36;;;;;;;;;;;;;;;38.40;35.09;99929.14;105420;1281;138449;-77
2022/08/23 10:33:16;;;;;;;28.10;7.40;;;;;;;38.44;34.89;99929.55;105357;1281;109137;-77
2022/08/23 10:36:01;;;;;;;26.70;7.50;;;;;;;38.36;35.05;99928.73;105068;1281;97965;-78
2022/08/23 10:38:42;;;;;;;25.00;6.90;;;;;;;38.17;34.99;99926.48;105076;1284;97934;-77
2022/08/23 10:41:33;;;;;;;25.50;8.70;;;;;;;38.16;35.05;99924.94;105315;1284;112520;-76
2022/08/23 10:44:23;;;;;;;26.30;7.50;;;;;;;38.17;35.11;99922.64;105301;1281;138060;-79
2022/08/23 10:47:08;;;;;;;25.10;7.20;;;;;;;38.22;35.81;99922.61;105361;1282;108791;-79
2022/08/23 10:49:43;;;;;;;25.10;7.60;;;;;;;38.43;35.90;99921.35;105182;1281;139942;-78
2022/08/23 10:52:20;;;;;;;23.50;6.90;;;;;;;38.56;35.43;99918.95;105485;1281;97986;-78
2022/08/23 10:55:05;;;;;;;27.70;7.40;;;;;;;38.64;35.54;99916.96;105430;1281;137920;-79
2022/08/23 10:57:40;;;;;;;29.50;7.10;;;;;;;38.77;35.54;99916.82;106642;1281;107861;-77
2022/08/23 11:00:19;;;;;;;20.90;6.70;;;;;;;38.85;35.30;99918.08;106477;1283;139016;-78
2022/08/23 11:02:59;;;;;;;20.50;7.40;;;;;;;38.89;34.98;99918.54;106146;1282;97951;-78
2022/08/23 11:05:37;;;;;;;28.60;7.40;;;;;;;38.89;34.51;99918.96;105520;1282;98014;-77
2022/08/23 11:08:35;;;;;;;22.40;6.80;;;;;;;38.91;34.68;99917.20;105139;1281;137892;-79
2022/08/23 11:11:38;;;;;;;25.30;6.70;;;;;;;38.96;34.35;99913.45;105331;1282;108987;-78
2022/08/23 11:14:13;;;;;;;19.70;6.10;;;;;;;39.08;34.14;99912.52;106686;1281;138026;-78
2022/08/23 11:16:47;;;;;;;25.00;6.60;;;;;;;39.23;33.45;99909.45;106698;1281;96885;-79
2022/08/23 11:19:51;;;;;;;28.50;7.10;;;;;;;39.17;32.91;99912.00;106553;1282;138550;-80
2022/08/23 11:22:26;;;;;;;24.20;6.00;;;;;;;38.96;32.67;99907.75;106555;1281;111528;-79
2022/08/23 11:25:03;;;;;;;22.30;5.80;;;;;;;38.80;32.96;99910.27;106575;1282;138324;-78
2022/08/23 11:27:43;;;;;;;31.30;6.40;;;;;;;38.65;32.82;99906.80;105402;1282;1622883;-80
2022/08/23 11:30:33;;;;;;;;;;;;;;;38.32;32.19;99905.31;106424;1282;138613;-79
2022/08/23 11:33:18;;;;;;;27.30;5.80;;;;;;;37.84;32.44;99906.09;105483;1281;97904;-79
2022/08/23 11:35:54;;;;;;;28.10;5.60;;;;;;;37.60;32.58;99905.08;105485;1281;111184;-78
2022/08/23 11:39:04;;;;;;;27.60;5.60;;;;;;;37.49;32.72;99900.44;105382;1281;137875;-79
2022/08/23 11:41:57;;;;;;;29.40;6.20;;;;;;;37.23;32.07;99910.59;104945;1282;108919;-78
2022/08/23 11:44:40;;;;;;;30.80;5.60;;;;;;;36.61;32.21;99910.96;105306;1282;97959;-78
2022/08/23 11:47:26;;;;;;;39.80;6.80;;;;;;;36.28;31.76;99911.77;105353;1283;97868;-79
2022/08/23 11:50:25;;;;;;;25.20;5.80;;;;;;;35.79;32.26;99909.27;105410;1281;137851;-79
2022/08/23 11:53:14;;;;;;;37.20;6.10;;;;;;;35.40;32.64;99909.09;105515;1281;109217;-81
2022/08/23 11:56:17;;;;;;;30.00;6.60;;;;;;;34.93;33.41;99906.41;105227;1282;140044;-77
2022/08/23 11:59:14;;;;;;;27.20;5.70;;;;;;;34.67;33.60;99910.63;104706;1287;98023;-77
2022/08/23 12:01:47;;;;;;;33.80;6.50;;;;;;;34.40;34.01;99912.73;105057;1286;138675;-80
2022/08/23 12:04:36;;;;;;;31.90;6.20;;;;;;;33.98;34.09;99914.15;106290;1287;113568;-78
2022/08/23 12:07:12;;;;;;;35.30;6.20;;;;;;;33.51;34.77;99913.54;106008;1287;139856;-76
2022/08/23 12:09:56;;;;;;;32.60;6.30;;;;;;;33.31;35.22;99915.69;106254;1287;109096;-80
2022/08/23 12:12:33;;;;;;;46.50;6.50;;;;;;;33.18;35.49;99914.14;106241;1286;138518;-78